createdAt,value
2023-10-06T00:02:29.954Z,100.00
2023-10-06T00:04:59.525Z,100.00
2023-10-06T00:07:28.268Z,100.00
2023-10-06T00:09:56.711Z,100.00
2023-10-06T00:12:27.707Z,100.00
2023-10-06T00:14:59.247Z,100.00
2023-10-06T00:17:34.793Z,100.00
2023-10-06T00:20:22.598Z,100.00
2023-10-06T00:22:51.387Z,100.00
2023-10-06T00:25:29.040Z,100.00
2023-10-06T00:28:01.774Z,100.00
2023-10-06T00:30:30.113Z,100.00
2023-10-06T00:33:06.539Z,100.00
2023-10-06T00:35:36.652Z,100.00
2023-10-06T00:38:14.016Z,100.00
2023-10-06T00:40:46.626Z,100.00
2023-10-06T00:43:22.130Z,100.00
2023-10-06T00:45:50.561Z,100.00
2023-10-06T00:48:18.981Z,100.00
2023-10-06T00:50:49.754Z,100.00
2023-10-06T00:53:21.736Z,100.00
2023-10-06T00:55:50.298Z,100.00
2023-10-06T00:58:20.492Z,100.00
2023-10-06T01:00:48.935Z,100.00
2023-10-06T01:03:17.795Z,100.00
2023-10-06T01:05:47.564Z,100.00
2023-10-06T01:08:17.488Z,100.00
2023-10-06T01:10:46.110Z,100.00
2023-10-06T01:13:15.445Z,100.00
2023-10-06T01:15:50.525Z,100.00
2023-10-06T01:18:24.734Z,100.00
2023-10-06T01:20:53.132Z,100.00
2023-10-06T01:23:23.400Z,100.00
2023-10-06T01:25:55.477Z,100.00
2023-10-06T01:28:24.618Z,100.00
2023-10-06T01:30:53.514Z,100.00
2023-10-06T01:33:22.168Z,100.00
2023-10-06T01:35:50.808Z,100.00
2023-10-06T01:38:23.675Z,100.00
2023-10-06T01:40:55.180Z,100.00
2023-10-06T01:43:25.581Z,100.00
2023-10-06T01:45:54.256Z,100.00
2023-10-06T01:48:25.313Z,100.00
2023-10-06T01:50:55.713Z,100.00
2023-10-06T01:53:26.155Z,100.00
2023-10-06T01:55:56.276Z,100.00
2023-10-06T01:58:24.649Z,100.00
2023-10-06T02:00:53.021Z,100.00
2023-10-06T02:03:23.170Z,100.00
2023-10-06T02:05:55.895Z,100.00
2023-10-06T02:08:24.883Z,100.00
2023-10-06T02:10:53.283Z,100.00
2023-10-06T02:13:23.386Z,100.00
2023-10-06T02:15:57.841Z,100.00
2023-10-06T02:18:36.636Z,100.00
2023-10-06T02:21:11.701Z,100.00
2023-10-06T02:23:41.624Z,100.00
2023-10-06T02:26:13.488Z,100.00
2023-10-06T02:28:49.370Z,100.00
2023-10-06T02:31:22.586Z,100.00
2023-10-06T02:33:52.579Z,100.00
2023-10-06T02:36:22.659Z,100.00
2023-10-06T02:38:52.084Z,100.00
2023-10-06T02:41:22.583Z,100.00
2023-10-06T02:43:54.028Z,100.00
2023-10-06T02:46:24.662Z,100.00
2023-10-06T02:48:53.509Z,100.00
2023-10-06T02:51:30.061Z,100.00
2023-10-06T02:54:12.126Z,100.00
2023-10-06T02:56:41.567Z,100.00
2023-10-06T02:59:21.654Z,100.00
2023-10-06T03:01:53.690Z,100.00
2023-10-06T03:04:26.465Z,100.00
2023-10-06T03:06:56.860Z,100.00
2023-10-06T03:09:37.210Z,100.00
2023-10-06T03:12:12.938Z,100.00
2023-10-06T03:14:42.787Z,100.00
2023-10-06T03:17:14.045Z,100.00
2023-10-06T03:19:42.874Z,100.00
2023-10-06T03:22:13.681Z,100.00
2023-10-06T03:24:54.207Z,100.00
2023-10-06T03:27:24.777Z,100.00
2023-10-06T03:29:56.803Z,100.00
2023-10-06T03:32:33.785Z,100.00
2023-10-06T03:35:15.375Z,100.00
2023-10-06T03:37:53.355Z,100.00
2023-10-06T03:40:25.206Z,100.00
2023-10-06T03:42:54.932Z,100.00
2023-10-06T03:45:32.698Z,100.00
2023-10-06T03:48:12.052Z,100.00
2023-10-06T03:50:44.203Z,100.00
2023-10-06T03:53:16.031Z,100.00
2023-10-06T03:55:46.738Z,100.00
2023-10-06T03:58:17.776Z,100.00
2023-10-06T04:00:50.952Z,100.00
2023-10-06T04:03:20.546Z,100.00
2023-10-06T04:05:50.577Z,100.00
2023-10-06T04:08:22.155Z,100.00
2023-10-06T04:10:54.578Z,100.00
2023-10-06T04:13:24.199Z,100.00
2023-10-06T04:15:54.882Z,100.00
2023-10-06T04:18:25.018Z,100.00
2023-10-06T04:20:54.896Z,100.00
2023-10-06T04:23:24.952Z,100.00
2023-10-06T04:25:56.414Z,100.00
2023-10-06T04:28:26.680Z,100.00
2023-10-06T04:30:59.447Z,100.00
2023-10-06T04:33:29.849Z,100.00
2023-10-06T04:36:01.118Z,100.00
2023-10-06T04:38:30.597Z,100.00
2023-10-06T04:40:59.343Z,100.00
2023-10-06T04:43:27.888Z,100.00
2023-10-06T04:45:57.807Z,100.00
2023-10-06T04:48:26.268Z,100.00
2023-10-06T04:50:56.870Z,100.00
2023-10-06T04:53:25.252Z,100.00
2023-10-06T04:55:53.808Z,100.00
2023-10-06T04:58:22.153Z,100.00
2023-10-06T05:00:54.401Z,100.00
2023-10-06T05:03:24.147Z,100.00
2023-10-06T05:05:56.803Z,100.00
2023-10-06T05:08:25.837Z,100.00
2023-10-06T05:10:57.098Z,100.00
2023-10-06T05:13:27.855Z,100.00
2023-10-06T05:15:56.452Z,100.00
2023-10-06T05:18:26.506Z,100.00
2023-10-06T05:20:54.933Z,100.00
2023-10-06T05:23:23.380Z,100.00
2023-10-06T05:25:51.721Z,100.00
2023-10-06T05:28:21.826Z,100.00
2023-10-06T05:30:50.240Z,100.00
2023-10-06T05:33:18.741Z,100.00
2023-10-06T05:35:49.467Z,100.00
2023-10-06T05:38:17.904Z,100.00
2023-10-06T05:40:47.573Z,100.00
2023-10-06T05:43:17.373Z,100.00
2023-10-06T05:45:46.357Z,100.00
2023-10-06T05:48:17.195Z,100.00
2023-10-06T05:50:47.082Z,100.00
2023-10-06T05:53:21.063Z,100.00
2023-10-06T05:55:50.920Z,100.00
2023-10-06T05:58:20.892Z,100.00
2023-10-06T06:00:56.647Z,100.00
2023-10-06T06:03:25.940Z,100.00
2023-10-06T06:05:58.734Z,100.00
2023-10-06T06:08:31.330Z,100.00
2023-10-06T06:11:01.113Z,100.00
2023-10-06T06:13:29.471Z,100.00
2023-10-06T06:15:57.825Z,100.00
2023-10-06T06:18:28.594Z,100.00
2023-10-06T06:20:56.988Z,100.00
2023-10-06T06:23:25.691Z,100.00
2023-10-06T06:25:55.823Z,100.00
2023-10-06T06:28:24.141Z,100.00
2023-10-06T06:30:52.433Z,100.00
2023-10-06T06:33:23.544Z,100.00
2023-10-06T06:35:51.883Z,100.00
2023-10-06T06:38:20.293Z,100.00
2023-10-06T06:40:49.279Z,100.00
2023-10-06T06:43:21.247Z,100.00
2023-10-06T06:45:49.858Z,100.00
2023-10-06T06:48:20.991Z,100.00
2023-10-06T06:50:49.695Z,100.00
2023-10-06T06:53:19.895Z,100.00
2023-10-06T06:55:48.539Z,100.00
2023-10-06T06:58:18.054Z,100.00
2023-10-06T07:00:49.044Z,100.00
2023-10-06T07:03:18.313Z,100.00
2023-10-06T07:05:46.665Z,100.00
2023-10-06T07:08:16.338Z,100.00
2023-10-06T07:10:48.468Z,100.00
2023-10-06T07:13:17.091Z,100.00
2023-10-06T07:15:46.929Z,100.00
2023-10-06T07:18:15.916Z,100.00
2023-10-06T07:20:45.458Z,100.00
2023-10-06T07:23:14.088Z,100.00
2023-10-06T07:25:42.447Z,100.00
2023-10-06T07:28:13.479Z,100.00
2023-10-06T07:30:42.264Z,100.00
2023-10-06T07:33:11.934Z,100.00
2023-10-06T07:35:43.270Z,100.00
2023-10-06T07:38:13.327Z,100.00
2023-10-06T07:40:43.460Z,100.00
2023-10-06T07:43:13.851Z,100.00
2023-10-06T07:45:42.610Z,100.00
2023-10-06T07:48:12.453Z,100.00
2023-10-06T07:50:40.846Z,100.00
2023-10-06T07:53:10.689Z,100.00
2023-10-06T07:55:39.066Z,100.00
2023-10-06T07:58:09.493Z,100.00
2023-10-06T08:00:43.102Z,100.00
2023-10-06T08:03:13.973Z,100.00
2023-10-06T08:05:42.370Z,100.00
2023-10-06T08:08:10.710Z,100.00
2023-10-06T08:10:39.289Z,100.00
2023-10-06T08:13:09.061Z,100.00
2023-10-06T08:15:41.834Z,100.00
2023-10-06T08:18:10.407Z,100.00
2023-10-06T08:20:41.285Z,100.00
2023-10-06T08:23:09.798Z,100.00
2023-10-06T08:25:56.929Z,100.00
2023-10-06T08:28:27.520Z,100.00
2023-10-06T08:30:56.056Z,100.00
2023-10-06T08:33:28.838Z,100.00
2023-10-06T08:36:01.718Z,100.00
2023-10-06T08:38:31.418Z,100.00
2023-10-06T08:41:04.155Z,100.00
2023-10-06T08:43:33.701Z,100.00
2023-10-06T08:46:03.691Z,100.00
2023-10-06T08:48:33.116Z,100.00
2023-10-06T08:51:08.561Z,100.00
2023-10-06T08:53:39.317Z,100.00
2023-10-06T08:56:08.174Z,100.00
2023-10-06T08:58:37.359Z,100.00
2023-10-06T09:01:07.329Z,100.00
2023-10-06T09:03:40.255Z,100.00
2023-10-06T09:06:12.792Z,100.00
2023-10-06T09:08:42.831Z,100.00
2023-10-06T09:11:13.108Z,100.00
2023-10-06T09:13:43.154Z,100.00
2023-10-06T09:16:13.063Z,100.00
2023-10-06T09:18:42.520Z,100.00
2023-10-06T09:21:19.455Z,100.00
2023-10-06T09:23:49.026Z,100.00
2023-10-06T09:26:28.973Z,100.00
2023-10-06T09:29:02.480Z,100.00
2023-10-06T09:31:38.873Z,100.00
2023-10-06T09:34:10.750Z,100.00
2023-10-06T09:36:45.752Z,100.00
2023-10-06T09:39:27.134Z,100.00
2023-10-06T09:41:56.455Z,100.00
2023-10-06T09:44:25.635Z,100.00
2023-10-06T09:46:55.283Z,100.00
2023-10-06T09:49:24.263Z,100.00
2023-10-06T09:51:54.836Z,100.00
2023-10-06T09:54:23.649Z,100.00
2023-10-06T09:56:56.478Z,100.00
2023-10-06T09:59:27.596Z,100.00
2023-10-06T10:01:58.315Z,100.00
2023-10-06T10:04:31.519Z,100.00
2023-10-06T10:07:04.102Z,100.00
2023-10-06T10:09:36.085Z,100.00
2023-10-06T10:12:21.625Z,100.00
2023-10-06T10:15:02.047Z,100.00
2023-10-06T10:17:39.785Z,100.00
2023-10-06T10:20:10.870Z,100.00
2023-10-06T10:22:42.802Z,100.00
2023-10-06T10:28:18.129Z,100.00
2023-10-06T10:30:51.589Z,99.99
2023-10-06T10:33:22.508Z,100.00
2023-10-06T10:36:21.081Z,99.71
2023-10-06T10:39:10.433Z,100.00
2023-10-06T10:41:41.575Z,100.00
2023-10-06T10:44:25.494Z,100.00
2023-10-06T10:46:57.919Z,99.41
2023-10-06T10:49:34.013Z,99.11
2023-10-06T10:52:03.943Z,97.88
2023-10-06T10:54:35.880Z,97.43
2023-10-06T10:57:07.594Z,96.90
2023-10-06T11:00:13.663Z,96.49
2023-10-06T11:02:44.606Z,97.05
2023-10-06T11:05:13.361Z,96.30
2023-10-06T11:07:43.217Z,94.79
2023-10-06T11:10:14.399Z,95.03
2023-10-06T11:12:42.866Z,95.54
2023-10-06T11:15:17.248Z,96.27
2023-10-06T11:17:46.531Z,95.19
2023-10-06T11:20:17.193Z,92.62
2023-10-06T11:22:56.659Z,94.23
2023-10-06T11:25:29.354Z,93.76
2023-10-06T11:27:59.088Z,90.77
2023-10-06T11:30:30.164Z,90.78
2023-10-06T11:32:59.193Z,89.98
2023-10-06T11:35:27.638Z,89.56
2023-10-06T11:37:56.859Z,90.00
2023-10-06T11:40:27.426Z,89.90
2023-10-06T11:42:55.823Z,90.44
2023-10-06T11:45:27.408Z,91.37
2023-10-06T11:47:56.538Z,89.15
2023-10-06T11:50:26.907Z,88.18
2023-10-06T11:52:56.398Z,88.04
2023-10-06T11:55:29.701Z,87.45
2023-10-06T11:57:59.602Z,87.58
2023-10-06T12:00:41.781Z,87.88
2023-10-06T12:03:12.891Z,87.72
2023-10-06T12:05:44.983Z,87.97
2023-10-06T12:08:15.436Z,89.16
2023-10-06T12:10:52.943Z,86.87
2023-10-06T12:13:21.704Z,88.53
2023-10-06T12:15:50.066Z,89.01
2023-10-06T12:18:18.634Z,86.96
2023-10-06T12:20:46.952Z,86.41
2023-10-06T12:23:15.480Z,86.59
2023-10-06T12:25:43.887Z,85.64
2023-10-06T12:28:17.566Z,86.62
2023-10-06T12:30:46.257Z,87.64
2023-10-06T12:33:14.968Z,87.33
2023-10-06T12:35:43.953Z,88.42
2023-10-06T12:38:15.763Z,88.17
2023-10-06T12:40:48.109Z,88.38
2023-10-06T12:43:20.409Z,89.19
2023-10-06T12:45:48.765Z,88.95
2023-10-06T12:48:17.346Z,88.82
2023-10-06T12:50:45.806Z,87.60
2023-10-06T12:53:14.298Z,87.07
2023-10-06T12:55:44.342Z,86.95
2023-10-06T12:58:16.140Z,87.80
2023-10-06T13:00:45.980Z,86.85
2023-10-06T13:03:18.127Z,87.13
2023-10-06T13:05:50.541Z,87.04
2023-10-06T13:08:26.578Z,87.23
2023-10-06T13:10:55.995Z,87.83
2023-10-06T13:13:25.015Z,87.25
2023-10-06T13:15:55.108Z,87.22
2023-10-06T13:18:23.593Z,88.03
2023-10-06T13:20:53.545Z,87.96
2023-10-06T13:23:27.762Z,87.12
2023-10-06T13:25:59.416Z,86.48
2023-10-06T13:28:29.379Z,87.33
2023-10-06T13:30:59.271Z,87.53
2023-10-06T13:33:27.814Z,88.93
2023-10-06T13:35:56.275Z,96.34
2023-10-06T13:38:26.768Z,100.00
2023-10-06T13:40:55.726Z,99.97
2023-10-06T13:43:24.330Z,100.00
2023-10-06T13:45:54.477Z,100.00
2023-10-06T13:48:27.459Z,100.00
2023-10-06T13:50:59.250Z,100.00
2023-10-06T13:53:27.959Z,100.00
2023-10-06T13:55:57.425Z,100.00
2023-10-06T13:58:25.986Z,100.00
2023-10-06T14:00:57.265Z,100.00
2023-10-06T14:03:28.049Z,100.00
2023-10-06T14:05:57.305Z,100.00
2023-10-06T14:08:26.456Z,100.00
2023-10-06T14:10:55.072Z,100.00
2023-10-06T14:13:26.387Z,100.00
2023-10-06T14:16:10.213Z,100.00
2023-10-06T14:18:41.537Z,100.00
2023-10-06T14:21:12.655Z,100.00
2023-10-06T14:23:45.216Z,100.00
2023-10-06T14:26:14.164Z,100.00
2023-10-06T14:28:43.209Z,100.00
2023-10-06T14:31:21.287Z,100.00
2023-10-06T14:33:59.147Z,100.00
2023-10-06T14:36:29.470Z,100.00
2023-10-06T14:39:15.265Z,100.00
2023-10-06T14:42:01.048Z,100.00
2023-10-06T14:44:46.796Z,100.00
2023-10-06T14:47:15.399Z,100.00
2023-10-06T14:49:45.752Z,100.00
2023-10-06T14:52:14.772Z,100.00
2023-10-06T14:54:44.941Z,100.00
2023-10-06T14:57:14.156Z,100.00
2023-10-06T14:59:45.347Z,100.00
2023-10-06T15:02:14.050Z,100.00
2023-10-06T15:04:42.912Z,100.00
2023-10-06T15:07:15.851Z,100.00
2023-10-06T15:09:45.137Z,100.00
2023-10-06T15:12:15.732Z,100.00
2023-10-06T15:14:45.819Z,100.00
2023-10-06T15:17:15.592Z,100.00
2023-10-06T15:19:47.559Z,100.00
2023-10-06T15:22:17.735Z,100.00
2023-10-06T15:24:46.103Z,100.00
2023-10-06T15:27:14.533Z,100.00
2023-10-06T15:29:43.623Z,100.00
2023-10-06T15:32:12.914Z,100.00
2023-10-06T15:34:41.941Z,100.00
2023-10-06T15:37:10.408Z,100.00
2023-10-06T15:39:40.131Z,100.00
2023-10-06T15:42:11.052Z,100.00
2023-10-06T15:44:39.592Z,100.00
2023-10-06T15:47:08.877Z,100.00
2023-10-06T15:49:38.809Z,100.00
2023-10-06T15:52:09.001Z,100.00
2023-10-06T15:54:41.167Z,100.00
2023-10-06T15:57:11.034Z,100.00
2023-10-06T15:59:40.067Z,100.00
2023-10-06T16:02:11.085Z,100.00
2023-10-06T16:04:40.262Z,100.00
2023-10-06T16:07:09.717Z,100.00
2023-10-06T16:09:38.100Z,100.00
2023-10-06T16:12:07.842Z,100.00
2023-10-06T16:14:38.533Z,100.00
2023-10-06T16:17:07.000Z,100.00
2023-10-06T16:19:37.636Z,100.00
2023-10-06T16:22:08.862Z,100.00
2023-10-06T16:24:37.353Z,100.00
2023-10-06T16:27:06.994Z,100.00
2023-10-06T16:29:36.895Z,100.00
2023-10-06T16:32:05.564Z,100.00
2023-10-06T16:34:33.984Z,100.00
2023-10-06T16:37:02.681Z,100.00
2023-10-06T16:39:31.990Z,100.00
2023-10-06T16:42:00.437Z,100.00
2023-10-06T16:44:28.813Z,100.00
2023-10-06T16:46:58.512Z,100.00
2023-10-06T16:49:29.103Z,100.00
2023-10-06T16:51:57.649Z,100.00
2023-10-06T16:54:33.986Z,100.00
2023-10-06T16:57:02.850Z,100.00
2023-10-06T16:59:31.492Z,100.00
2023-10-06T17:02:01.460Z,100.00
2023-10-06T17:04:30.556Z,100.00
2023-10-06T17:06:59.182Z,100.00
2023-10-06T17:09:37.502Z,100.00
2023-10-06T17:12:08.826Z,100.00
2023-10-06T17:14:37.406Z,100.00
2023-10-06T17:17:07.466Z,100.00
2023-10-06T17:19:39.004Z,100.00
2023-10-06T17:22:18.149Z,100.00
2023-10-06T17:24:53.227Z,100.00
2023-10-06T17:27:24.772Z,100.00
2023-10-06T17:29:56.698Z,100.00
2023-10-06T17:32:27.917Z,100.00
2023-10-06T17:34:56.620Z,100.00
2023-10-06T17:37:30.704Z,100.00
2023-10-06T17:39:59.433Z,100.00
2023-10-06T17:42:31.949Z,100.00
2023-10-06T17:45:03.521Z,100.00
2023-10-06T17:47:33.803Z,100.00
2023-10-06T17:50:02.935Z,100.00
2023-10-06T17:52:31.833Z,100.00
2023-10-06T17:55:03.322Z,100.00
2023-10-06T17:57:36.320Z,100.00
2023-10-06T18:00:10.914Z,100.00
2023-10-06T18:02:41.106Z,100.00
2023-10-06T18:05:10.319Z,99.35
2023-10-06T18:07:39.365Z,99.42
2023-10-06T18:10:10.046Z,99.54
2023-10-06T18:12:38.841Z,100.00
2023-10-06T18:15:09.433Z,99.03
2023-10-06T18:17:38.425Z,98.87
2023-10-06T18:20:10.441Z,98.33
2023-10-06T18:22:38.973Z,98.53
2023-10-06T18:25:08.838Z,98.33
2023-10-06T18:27:37.850Z,98.57
2023-10-06T18:30:10.202Z,97.96
2023-10-06T18:32:38.732Z,97.42
2023-10-06T18:35:09.040Z,97.32
2023-10-06T18:37:39.451Z,97.18
2023-10-06T18:40:14.460Z,97.04
2023-10-06T18:42:43.282Z,96.09
2023-10-06T18:45:12.620Z,96.52
2023-10-06T18:47:41.929Z,96.39
2023-10-06T18:50:18.913Z,96.32
2023-10-06T18:52:48.142Z,96.54
2023-10-06T18:55:18.659Z,96.09
2023-10-06T18:57:47.378Z,96.28
2023-10-06T19:00:16.839Z,96.65
2023-10-06T19:02:46.939Z,98.62
2023-10-06T19:05:16.967Z,97.71
2023-10-06T19:07:45.354Z,97.02
2023-10-06T19:10:15.378Z,96.62
2023-10-06T19:12:46.671Z,96.73
2023-10-06T19:15:15.452Z,96.66
2023-10-06T19:17:43.852Z,96.58
2023-10-06T19:20:14.208Z,95.37
2023-10-06T19:22:44.424Z,95.40
2023-10-06T19:25:15.225Z,95.03
2023-10-06T19:27:46.724Z,95.51
2023-10-06T19:30:17.396Z,94.16
2023-10-06T19:32:46.545Z,94.40
2023-10-06T19:35:16.359Z,94.19
2023-10-06T19:37:46.651Z,94.71
2023-10-06T19:40:15.325Z,93.78
2023-10-06T19:42:44.318Z,93.61
2023-10-06T19:45:12.752Z,93.69
2023-10-06T19:47:41.244Z,93.42
2023-10-06T19:50:13.732Z,93.44
2023-10-06T19:52:42.589Z,93.55
2023-10-06T19:55:12.481Z,93.46
2023-10-06T19:57:40.939Z,92.78
2023-10-06T20:00:12.349Z,92.81
2023-10-06T20:02:42.507Z,92.59
2023-10-06T20:05:14.166Z,91.46
2023-10-06T20:07:42.701Z,92.34
2023-10-06T20:10:16.537Z,91.86
2023-10-06T20:12:44.981Z,91.62
2023-10-06T20:15:14.037Z,92.21
2023-10-06T20:17:42.500Z,91.17
2023-10-06T20:20:12.576Z,91.64
2023-10-06T20:22:41.057Z,90.64
2023-10-06T20:25:12.112Z,90.93
2023-10-06T20:27:47.512Z,90.70
2023-10-06T20:30:17.335Z,90.02
2023-10-06T20:32:46.791Z,89.87
2023-10-06T20:35:15.378Z,88.68
2023-10-06T20:37:44.294Z,89.83
2023-10-06T20:40:17.312Z,89.15
2023-10-06T20:42:47.113Z,88.92
2023-10-06T20:45:16.945Z,89.10
2023-10-06T20:47:46.100Z,88.22
2023-10-06T20:50:14.654Z,88.21
2023-10-06T20:52:43.951Z,88.05
2023-10-06T20:55:12.780Z,88.29
2023-10-06T20:57:41.167Z,87.61
2023-10-06T21:00:11.992Z,87.79
2023-10-06T21:02:40.726Z,88.02
2023-10-06T21:05:10.795Z,88.00
2023-10-06T21:07:39.860Z,88.17
2023-10-06T21:10:09.636Z,88.54
2023-10-06T21:12:38.729Z,88.32
2023-10-06T21:15:12.257Z,88.18
2023-10-06T21:17:44.144Z,88.21
2023-10-06T21:20:16.423Z,87.91
2023-10-06T21:22:45.363Z,87.89
2023-10-06T21:25:15.181Z,88.19
2023-10-06T21:27:43.695Z,88.64
2023-10-06T21:30:16.694Z,88.29
2023-10-06T21:32:47.297Z,89.01
2023-10-06T21:35:16.235Z,89.39
2023-10-06T21:37:45.962Z,89.72
2023-10-06T21:40:14.822Z,89.40
2023-10-06T21:42:43.188Z,89.58
2023-10-06T21:45:12.407Z,89.94
2023-10-06T21:47:40.791Z,90.44
2023-10-06T21:50:11.386Z,90.95
2023-10-06T21:52:41.779Z,90.42
2023-10-06T21:55:12.098Z,90.69
2023-10-06T21:57:40.651Z,90.75
2023-10-06T22:00:26.201Z,91.88
2023-10-06T22:02:56.055Z,91.77
2023-10-06T22:05:25.943Z,91.41
2023-10-06T22:07:54.384Z,91.76
2023-10-06T22:10:25.394Z,91.83
2023-10-06T22:12:54.477Z,92.50
2023-10-06T22:15:22.950Z,93.46
2023-10-06T22:17:51.317Z,92.92
2023-10-06T22:20:21.162Z,93.95
2023-10-06T22:22:51.821Z,93.90
2023-10-06T22:25:20.771Z,94.61
2023-10-06T22:27:49.191Z,94.15
2023-10-06T22:30:18.859Z,94.36
2023-10-06T22:32:47.732Z,94.88
2023-10-06T22:35:17.493Z,94.85
2023-10-06T22:37:46.948Z,94.70
2023-10-06T22:40:18.706Z,95.45
2023-10-06T22:42:48.923Z,94.61
2023-10-06T22:45:20.340Z,95.14
2023-10-06T22:47:50.172Z,95.63
2023-10-06T22:50:20.691Z,95.82
2023-10-06T22:52:50.511Z,96.28
2023-10-06T22:55:20.742Z,96.06
2023-10-06T22:57:49.685Z,96.31
2023-10-06T23:00:19.149Z,96.59
2023-10-06T23:02:49.170Z,96.90
2023-10-06T23:05:17.848Z,96.53
2023-10-06T23:07:48.239Z,96.92
2023-10-06T23:10:19.249Z,96.76
2023-10-06T23:12:50.593Z,97.99
2023-10-06T23:15:19.429Z,97.95
2023-10-06T23:17:47.998Z,98.11
2023-10-06T23:20:25.326Z,98.58
2023-10-06T23:22:59.197Z,98.17
2023-10-06T23:25:37.597Z,98.79
2023-10-06T23:28:08.567Z,98.23
2023-10-06T23:30:37.988Z,98.01
2023-10-06T23:33:07.081Z,98.46
2023-10-06T23:35:36.099Z,99.31
2023-10-06T23:38:07.851Z,99.50
2023-10-06T23:40:39.455Z,99.34
2023-10-06T23:43:10.135Z,98.82
2023-10-06T23:45:39.026Z,99.29
2023-10-06T23:48:12.534Z,99.63
2023-10-06T23:50:52.702Z,99.41
2023-10-06T23:53:24.089Z,99.32
2023-10-06T23:55:54.283Z,99.67
2023-10-06T23:58:24.298Z,100.00
